Maple Hill, Minnesota
Current Conditions -  °F | °C
As of 11:53 AM on Saturday 20 Dec 2014 (Local Time) from KCKC Reporting Station
Light Snow Light Snow  
Wind Chill: 27°   Ceiling: 200
Heat Index: 27°   Visibility: 1.5mi
Dew Point: 23°   Wind: 3mph
Humidity: 86%   Direction: 150°SSE
Pressure: 30.1"   Gusts: NA
Location:  47.8874°N, 90.328°W
Report Text: KCKC 201753Z AUTO 15003KT 1 1/2SM -SN OVC002 M03/M05 A3010 RMK AO2
Loading
Personal Weather Stations






























Interactive Weather Map New forecast layout! Learn more

10-Day Weather Forecast

Advertisements
Track Severe Weather on mobile